createdAt,value
2019-02-18T00:01:04.511Z,76.19
2019-02-18T00:03:35.474Z,75.74
2019-02-18T00:06:06.321Z,76.46
2019-02-18T00:08:35.814Z,76.16
2019-02-18T00:11:06.165Z,76.50
2019-02-18T00:13:37.320Z,76.62
2019-02-18T00:16:08.245Z,76.59
2019-02-18T00:18:36.968Z,77.20
2019-02-18T00:21:06.535Z,77.01
2019-02-18T00:23:42.749Z,76.00
2019-02-18T00:26:13.128Z,76.92
2019-02-18T00:28:42.812Z,76.92
2019-02-18T00:31:16.423Z,77.39
2019-02-18T00:33:44.854Z,77.76
2019-02-18T00:36:16.170Z,77.69
2019-02-18T00:38:48.133Z,78.05
2019-02-18T00:41:21.367Z,77.93
2019-02-18T00:43:50.204Z,78.00
2019-02-18T00:46:24.021Z,78.91
2019-02-18T00:48:54.260Z,79.33
2019-02-18T00:51:27.663Z,78.95
2019-02-18T00:53:56.165Z,79.76
2019-02-18T00:56:28.396Z,79.51
2019-02-18T00:58:56.977Z,78.70
2019-02-18T01:01:26.277Z,78.61
2019-02-18T01:03:58.332Z,78.60
2019-02-18T01:06:27.076Z,78.30
2019-02-18T01:08:58.176Z,78.20
2019-02-18T01:11:31.769Z,78.30
2019-02-18T01:14:01.967Z,78.54
2019-02-18T01:16:34.514Z,79.08
2019-02-18T01:19:06.526Z,79.44
2019-02-18T01:21:40.097Z,79.31
2019-02-18T01:24:10.420Z,80.13
2019-02-18T01:26:39.115Z,80.24
2019-02-18T01:29:07.839Z,80.36
2019-02-18T01:31:38.245Z,80.64
2019-02-18T01:34:11.552Z,80.36
2019-02-18T01:36:42.573Z,81.10
2019-02-18T01:39:16.277Z,81.33
2019-02-18T01:41:47.771Z,82.40
2019-02-18T01:44:19.556Z,82.00
2019-02-18T01:46:54.006Z,81.81
2019-02-18T01:49:30.249Z,82.01
2019-02-18T01:52:01.356Z,81.60
2019-02-18T01:54:30.428Z,81.95
2019-02-18T01:57:03.901Z,82.94
2019-02-18T01:59:32.891Z,83.05
2019-02-18T02:02:03.594Z,82.57
2019-02-18T02:04:34.194Z,83.10
2019-02-18T02:07:06.264Z,83.14
2019-02-18T02:09:39.551Z,83.23
2019-02-18T02:12:08.281Z,82.69
2019-02-18T02:14:36.821Z,82.27
2019-02-18T02:17:10.435Z,82.45
2019-02-18T02:19:40.651Z,82.67
2019-02-18T02:22:09.603Z,83.15
2019-02-18T02:24:38.857Z,82.83
2019-02-18T02:27:10.639Z,83.02
2019-02-18T02:29:41.002Z,83.27
2019-02-18T02:32:11.399Z,83.14
2019-02-18T02:34:45.487Z,83.68
2019-02-18T02:37:17.374Z,82.57
2019-02-18T02:39:46.306Z,82.86
2019-02-18T02:42:17.944Z,83.82
2019-02-18T02:44:47.173Z,83.47
2019-02-18T02:47:18.631Z,82.90
2019-02-18T02:49:49.958Z,82.81
2019-02-18T02:52:20.492Z,82.90
2019-02-18T02:54:49.577Z,83.63
2019-02-18T02:57:20.039Z,84.21
2019-02-18T02:59:50.787Z,83.99
2019-02-18T03:02:22.887Z,84.51
2019-02-18T03:04:53.707Z,84.04
2019-02-18T03:07:31.197Z,83.72
2019-02-18T03:10:02.507Z,84.32
2019-02-18T03:12:32.629Z,84.55
2019-02-18T03:15:06.049Z,85.04
2019-02-18T03:17:37.275Z,84.77
2019-02-18T03:20:09.602Z,84.65
2019-02-18T03:22:40.045Z,85.39
2019-02-18T03:25:16.651Z,85.50
2019-02-18T03:27:45.256Z,85.36
2019-02-18T03:30:42.792Z,84.60
2019-02-18T03:33:14.515Z,84.75
2019-02-18T03:35:43.447Z,84.95
2019-02-18T03:38:17.156Z,84.97
2019-02-18T03:40:45.695Z,85.29
2019-02-18T03:43:19.619Z,85.06
2019-02-18T03:45:50.366Z,85.50
2019-02-18T03:48:23.970Z,85.42
2019-02-18T03:50:53.550Z,85.46
2019-02-18T03:53:25.579Z,85.96
2019-02-18T03:55:56.348Z,86.53
2019-02-18T03:58:29.853Z,86.90
2019-02-18T04:00:58.130Z,87.27
2019-02-18T04:03:28.240Z,87.07
2019-02-18T04:05:57.156Z,86.76
2019-02-18T04:08:27.618Z,86.12
2019-02-18T04:10:58.141Z,86.52
2019-02-18T04:13:27.264Z,86.40
2019-02-18T04:15:58.346Z,86.67
2019-02-18T04:18:29.181Z,86.95
2019-02-18T04:20:59.310Z,86.63
2019-02-18T04:23:31.351Z,86.49
2019-02-18T04:26:01.276Z,86.00
2019-02-18T04:28:32.842Z,85.75
2019-02-18T04:31:04.218Z,86.57
2019-02-18T04:33:37.860Z,86.48
2019-02-18T04:36:11.500Z,86.99
2019-02-18T04:38:40.430Z,86.68
2019-02-18T04:41:09.307Z,86.36
2019-02-18T04:43:37.866Z,85.99
2019-02-18T04:46:08.407Z,86.73
2019-02-18T04:48:41.735Z,86.67
2019-02-18T04:51:11.118Z,86.76
2019-02-18T04:53:39.878Z,86.26
2019-02-18T04:56:12.120Z,86.42
2019-02-18T04:58:44.054Z,86.54
2019-02-18T05:01:35.983Z,86.21
2019-02-18T05:04:05.216Z,86.38
2019-02-18T05:06:35.496Z,86.56
2019-02-18T05:09:05.959Z,87.28
2019-02-18T05:11:36.356Z,86.91
2019-02-18T05:14:05.677Z,87.38
2019-02-18T05:16:34.408Z,86.65
2019-02-18T05:19:07.063Z,86.73
2019-02-18T05:21:39.063Z,86.58
2019-02-18T05:24:09.881Z,87.14
2019-02-18T05:26:40.676Z,86.55
2019-02-18T05:29:11.341Z,87.07
2019-02-18T05:31:42.005Z,87.17
2019-02-18T05:34:12.462Z,87.22
2019-02-18T05:36:42.774Z,87.38
2019-02-18T05:39:17.884Z,87.54
2019-02-18T05:41:45.244Z,87.39
2019-02-18T05:44:18.479Z,86.85
2019-02-18T05:46:49.518Z,86.24
2019-02-18T05:49:19.638Z,86.00
2019-02-18T05:51:48.826Z,86.16
2019-02-18T05:54:22.504Z,86.11
2019-02-18T05:56:52.926Z,86.14
2019-02-18T05:59:22.395Z,85.67
2019-02-18T06:01:52.898Z,86.27
2019-02-18T06:04:21.657Z,86.07
2019-02-18T06:06:58.754Z,85.89
2019-02-18T06:09:30.452Z,85.62
2019-02-18T06:12:01.344Z,85.94
2019-02-18T06:14:30.982Z,85.92
2019-02-18T06:17:02.889Z,86.26
2019-02-18T06:19:33.145Z,86.39
2019-02-18T06:22:02.898Z,86.46
2019-02-18T06:24:39.554Z,86.70
2019-02-18T06:27:09.558Z,86.52
2019-02-18T06:29:38.848Z,86.57
2019-02-18T06:32:09.057Z,86.89
2019-02-18T06:34:39.748Z,87.07
2019-02-18T06:37:10.483Z,86.73
2019-02-18T06:39:42.001Z,86.23
2019-02-18T06:42:11.446Z,86.59
2019-02-18T06:44:59.589Z,86.82
2019-02-18T06:47:31.810Z,86.83
2019-02-18T06:50:00.565Z,86.85
2019-02-18T06:52:32.890Z,86.96
2019-02-18T06:55:03.361Z,86.95
2019-02-18T06:57:54.171Z,86.95
2019-02-18T07:00:34.576Z,86.20
2019-02-18T07:03:26.018Z,86.14
2019-02-18T07:06:15.100Z,86.69
2019-02-18T07:08:52.343Z,86.87
2019-02-18T07:11:30.681Z,86.50
2019-02-18T07:14:03.050Z,86.72
2019-02-18T07:16:34.802Z,86.05
2019-02-18T07:19:05.724Z,85.54
2019-02-18T07:21:36.158Z,86.17
2019-02-18T07:24:04.751Z,86.11
2019-02-18T07:26:33.631Z,85.84
2019-02-18T07:29:04.451Z,85.44
2019-02-18T07:31:33.419Z,85.19
2019-02-18T07:34:06.671Z,85.00
2019-02-18T07:36:35.216Z,84.79
2019-02-18T07:39:05.337Z,84.42
2019-02-18T07:41:37.634Z,84.56
2019-02-18T07:44:09.293Z,84.92
2019-02-18T07:46:44.937Z,84.78
2019-02-18T07:49:21.270Z,84.57
2019-02-18T07:51:53.249Z,82.99
2019-02-18T07:54:23.836Z,81.30
2019-02-18T07:56:53.404Z,80.12
2019-02-18T07:59:24.003Z,79.76
2019-02-18T08:01:55.468Z,79.44
2019-02-18T08:04:24.402Z,79.74
2019-02-18T08:06:55.307Z,79.59
2019-02-18T08:09:27.381Z,79.39
2019-02-18T08:11:55.909Z,79.14
2019-02-18T08:14:27.959Z,78.89
2019-02-18T08:16:56.681Z,79.02
2019-02-18T08:19:33.579Z,78.19
2019-02-18T08:22:03.513Z,78.20
2019-02-18T08:24:37.442Z,78.11
2019-02-18T08:27:09.919Z,77.79
2019-02-18T08:29:42.240Z,77.90
2019-02-18T08:32:14.535Z,77.15
2019-02-18T08:34:45.887Z,77.30
2019-02-18T08:37:17.885Z,77.14
2019-02-18T08:39:48.434Z,76.71
2019-02-18T08:42:18.817Z,76.76
2019-02-18T08:44:49.730Z,75.79
2019-02-18T08:47:20.446Z,75.47
2019-02-18T08:49:55.766Z,74.92
2019-02-18T08:52:30.847Z,74.49
2019-02-18T08:55:13.337Z,74.97
2019-02-18T08:57:48.186Z,74.43
2019-02-18T09:00:18.783Z,73.93
2019-02-18T09:02:52.959Z,73.74
2019-02-18T09:05:23.930Z,74.23
2019-02-18T09:07:52.898Z,73.40
2019-02-18T09:10:32.944Z,72.88
2019-02-18T09:12:54.568Z,72.46
2019-02-18T09:15:28.488Z,73.41
2019-02-18T09:18:03.179Z,72.80
2019-02-18T09:20:35.199Z,71.85
2019-02-18T09:23:21.169Z,71.62
2019-02-18T09:25:59.312Z,71.29
2019-02-18T09:28:37.774Z,71.45
2019-02-18T09:31:10.903Z,70.69
2019-02-18T09:33:41.585Z,70.76
2019-02-18T09:36:12.153Z,70.45
2019-02-18T09:38:47.307Z,68.40
2019-02-18T09:41:25.502Z,68.17
2019-02-18T09:43:57.446Z,69.28
2019-02-18T09:46:31.065Z,69.30
2019-02-18T09:48:58.849Z,68.30
2019-02-18T09:51:27.493Z,66.55
2019-02-18T09:54:00.079Z,68.00
2019-02-18T09:56:30.477Z,67.13
2019-02-18T09:58:59.800Z,67.13
2019-02-18T10:01:30.341Z,65.52
2019-02-18T10:04:03.960Z,64.15
2019-02-18T10:06:33.951Z,62.77
2019-02-18T10:09:04.673Z,61.69
2019-02-18T10:11:43.221Z,60.62
2019-02-18T10:14:13.917Z,60.62
2019-02-18T10:16:43.025Z,59.87
2019-02-18T10:19:14.510Z,60.47
2019-02-18T10:21:43.154Z,58.58
2019-02-18T10:24:13.384Z,57.47
2019-02-18T10:26:44.035Z,56.16
2019-02-18T10:29:12.943Z,56.01
2019-02-18T10:31:44.632Z,55.01
2019-02-18T10:34:14.081Z,55.00
2019-02-18T10:36:44.438Z,55.53
2019-02-18T10:39:18.999Z,54.56
2019-02-18T10:41:54.108Z,53.87
2019-02-18T10:44:28.531Z,54.08
2019-02-18T10:47:01.845Z,52.72
2019-02-18T10:49:30.899Z,52.51
2019-02-18T10:52:00.933Z,51.87
2019-02-18T10:54:33.060Z,52.54
2019-02-18T10:57:06.820Z,52.03
2019-02-18T10:59:42.231Z,51.70
2019-02-18T11:02:17.331Z,51.36
2019-02-18T11:04:47.964Z,51.56
2019-02-18T11:07:22.518Z,51.62
2019-02-18T11:09:51.508Z,51.01
2019-02-18T11:12:25.517Z,51.23
2019-02-18T11:14:58.742Z,50.43
2019-02-18T11:17:38.819Z,51.11
2019-02-18T11:20:08.938Z,50.21
2019-02-18T11:22:42.628Z,50.75
2019-02-18T11:25:10.863Z,50.90
2019-02-18T11:27:43.354Z,50.25
2019-02-18T11:30:13.498Z,49.93
2019-02-18T11:32:48.288Z,49.51
2019-02-18T11:35:21.103Z,48.87
2019-02-18T11:37:51.510Z,49.11
2019-02-18T11:40:23.467Z,48.65
2019-02-18T11:42:54.088Z,48.09
2019-02-18T11:45:26.066Z,47.62
2019-02-18T11:47:55.004Z,46.95
2019-02-18T11:50:28.326Z,46.65
2019-02-18T11:53:00.388Z,46.99
2019-02-18T11:55:31.107Z,46.58
2019-02-18T11:58:05.445Z,46.21
2019-02-18T12:00:39.281Z,46.30
2019-02-18T12:03:12.298Z,46.17
2019-02-18T12:05:48.573Z,45.65
2019-02-18T12:08:25.891Z,45.44
2019-02-18T12:11:02.912Z,45.48
2019-02-18T12:13:31.697Z,44.98
2019-02-18T12:16:02.148Z,45.40
2019-02-18T12:18:38.392Z,44.16
2019-02-18T12:21:07.704Z,44.32
2019-02-18T12:23:48.212Z,45.10
2019-02-18T12:26:24.093Z,44.23
2019-02-18T12:29:14.962Z,44.02
2019-02-18T12:31:46.131Z,43.92
2019-02-18T12:34:18.650Z,42.87
2019-02-18T12:36:48.250Z,44.21
2019-02-18T12:39:22.758Z,43.73
2019-02-18T12:41:56.969Z,42.51
2019-02-18T12:44:31.174Z,42.66
2019-02-18T12:47:01.775Z,42.87
2019-02-18T12:49:34.374Z,41.81
2019-02-18T12:52:05.157Z,42.15
2019-02-18T12:54:34.446Z,42.31
2019-02-18T12:57:04.822Z,41.41
2019-02-18T12:59:36.425Z,41.72
2019-02-18T13:02:13.136Z,41.29
2019-02-18T13:04:45.099Z,41.21
2019-02-18T13:07:16.059Z,41.06
2019-02-18T13:09:44.975Z,40.75
2019-02-18T13:12:15.789Z,40.05
2019-02-18T13:14:47.229Z,39.94
2019-02-18T13:17:19.187Z,40.09
2019-02-18T13:19:50.107Z,40.05
2019-02-18T13:22:22.250Z,40.05
2019-02-18T13:24:55.510Z,39.51
2019-02-18T13:27:29.935Z,38.45
2019-02-18T13:30:01.010Z,38.65
2019-02-18T13:32:32.682Z,38.51
2019-02-18T13:35:03.128Z,38.16
2019-02-18T13:37:33.370Z,38.43
2019-02-18T13:40:02.629Z,38.56
2019-02-18T13:42:35.919Z,38.61
2019-02-18T13:45:06.507Z,38.71
2019-02-18T13:47:36.084Z,37.99
2019-02-18T13:50:05.132Z,37.22
2019-02-18T13:52:37.213Z,37.36
2019-02-18T13:55:08.204Z,37.68
2019-02-18T13:57:40.748Z,37.39
2019-02-18T14:00:18.303Z,37.71
2019-02-18T14:02:47.898Z,37.74
2019-02-18T14:05:18.761Z,37.49
2019-02-18T14:07:50.987Z,37.81
2019-02-18T14:10:21.075Z,38.22
2019-02-18T14:12:51.900Z,37.24
2019-02-18T14:15:23.453Z,37.41
2019-02-18T14:17:51.997Z,37.03
2019-02-18T14:20:22.668Z,36.89
2019-02-18T14:22:51.559Z,36.83
2019-02-18T14:25:23.541Z,36.88
2019-02-18T14:27:55.455Z,36.95
2019-02-18T14:30:27.344Z,37.14
2019-02-18T14:32:59.429Z,36.72
2019-02-18T14:35:29.381Z,36.72
2019-02-18T14:37:58.130Z,36.97
2019-02-18T14:40:27.128Z,36.92
2019-02-18T14:42:56.482Z,36.86
2019-02-18T14:45:25.932Z,37.04
2019-02-18T14:47:54.823Z,37.91
2019-02-18T14:50:27.203Z,38.50
2019-02-18T14:52:57.380Z,38.30
2019-02-18T14:55:26.330Z,38.63
2019-02-18T14:57:54.868Z,38.86
2019-02-18T15:00:24.031Z,39.27
2019-02-18T15:02:56.017Z,38.54
2019-02-18T15:05:25.564Z,37.80
2019-02-18T15:07:56.208Z,37.86
2019-02-18T15:10:28.183Z,38.10
2019-02-18T15:12:57.469Z,38.29
2019-02-18T15:15:28.096Z,38.27
2019-02-18T15:17:56.987Z,38.69
2019-02-18T15:20:30.457Z,38.94
2019-02-18T15:23:01.091Z,39.50
2019-02-18T15:25:29.875Z,39.92
2019-02-18T15:27:59.104Z,39.50
2019-02-18T15:30:28.014Z,39.66
2019-02-18T15:33:07.549Z,39.53
2019-02-18T15:35:39.307Z,40.10
2019-02-18T15:38:09.920Z,39.98
2019-02-18T15:40:39.946Z,40.16
2019-02-18T15:43:10.074Z,41.20
2019-02-18T15:45:40.324Z,40.89
2019-02-18T15:48:10.738Z,40.92
2019-02-18T15:50:40.330Z,41.29
2019-02-18T15:53:12.077Z,41.66
2019-02-18T15:55:42.235Z,42.17
2019-02-18T15:58:12.669Z,42.90
2019-02-18T16:00:45.047Z,43.77
2019-02-18T16:03:17.174Z,44.78
2019-02-18T16:05:47.620Z,45.22
2019-02-18T16:08:17.765Z,45.52
2019-02-18T16:10:53.715Z,44.79
2019-02-18T16:13:27.587Z,44.06
2019-02-18T16:15:58.155Z,43.67
2019-02-18T16:18:28.646Z,43.67
2019-02-18T16:21:03.680Z,43.05
2019-02-18T16:23:35.064Z,43.31
2019-02-18T16:26:13.349Z,43.78
2019-02-18T16:28:44.317Z,44.40
2019-02-18T16:31:20.413Z,46.17
2019-02-18T16:33:52.414Z,46.09
2019-02-18T16:36:25.228Z,47.41
2019-02-18T16:38:55.311Z,48.50
2019-02-18T16:41:27.583Z,49.59
2019-02-18T16:43:56.144Z,50.70
2019-02-18T16:46:31.204Z,52.21
2019-02-18T16:49:00.727Z,53.70
2019-02-18T16:51:40.233Z,54.58
2019-02-18T16:54:09.140Z,55.10
2019-02-18T16:56:40.153Z,55.94
2019-02-18T16:59:12.431Z,57.00
2019-02-18T17:01:41.357Z,57.61
2019-02-18T17:04:10.552Z,58.30
2019-02-18T17:06:39.493Z,58.32
2019-02-18T17:09:16.435Z,58.36
2019-02-18T17:11:47.965Z,59.89
2019-02-18T17:14:22.380Z,60.08
2019-02-18T17:16:51.998Z,60.43
2019-02-18T17:19:21.482Z,59.62
2019-02-18T17:21:53.467Z,60.13
2019-02-18T17:24:22.313Z,60.88
2019-02-18T17:26:53.979Z,60.79
2019-02-18T17:29:26.187Z,60.89
2019-02-18T17:31:55.423Z,61.62
2019-02-18T17:34:27.780Z,62.38
2019-02-18T17:37:04.966Z,62.46
2019-02-18T17:39:37.748Z,62.90
2019-02-18T17:42:10.675Z,63.21
2019-02-18T17:44:44.329Z,63.61
2019-02-18T17:47:16.396Z,63.75
2019-02-18T17:49:52.851Z,64.74
2019-02-18T17:52:22.305Z,64.97
2019-02-18T17:54:57.516Z,64.97
2019-02-18T17:57:32.360Z,64.93
2019-02-18T18:00:03.679Z,65.10
2019-02-18T18:02:38.534Z,65.00
2019-02-18T18:05:11.459Z,65.42
2019-02-18T18:07:43.891Z,65.02
2019-02-18T18:10:15.930Z,65.59
2019-02-18T18:12:53.522Z,64.92
2019-02-18T18:15:23.950Z,64.92
2019-02-18T18:17:56.366Z,63.06
2019-02-18T18:20:27.234Z,60.47
2019-02-18T18:23:04.508Z,58.93
2019-02-18T18:25:37.711Z,54.89
2019-02-18T18:28:14.094Z,54.89
2019-02-18T18:30:43.325Z,53.84
2019-02-18T18:33:18.846Z,52.92
2019-02-18T18:35:48.172Z,53.01
2019-02-18T18:38:18.518Z,52.77
2019-02-18T18:40:49.313Z,52.97
2019-02-18T18:43:19.468Z,53.18
2019-02-18T18:45:50.267Z,53.10
2019-02-18T18:48:23.375Z,52.81
2019-02-18T18:50:55.848Z,52.95
2019-02-18T18:53:27.705Z,52.98
2019-02-18T18:55:58.268Z,52.85
2019-02-18T18:58:29.361Z,51.41
2019-02-18T19:01:03.671Z,51.69
2019-02-18T19:03:36.090Z,51.59
2019-02-18T19:06:08.607Z,51.80
2019-02-18T19:08:38.446Z,51.74
2019-02-18T19:11:13.701Z,51.79
2019-02-18T19:13:45.851Z,51.76
2019-02-18T19:16:14.843Z,51.91
2019-02-18T19:18:51.521Z,51.54
2019-02-18T19:21:22.909Z,51.24
2019-02-18T19:23:56.691Z,51.51
2019-02-18T19:26:31.973Z,52.19
2019-02-18T19:29:03.195Z,51.79
2019-02-18T19:31:33.445Z,52.15
2019-02-18T19:34:04.280Z,52.55
2019-02-18T19:36:35.447Z,52.74
2019-02-18T19:39:11.370Z,53.68
2019-02-18T19:41:42.876Z,53.52
2019-02-18T19:44:15.072Z,52.73
2019-02-18T19:46:44.135Z,52.91
2019-02-18T19:49:16.784Z,53.40
2019-02-18T19:51:52.165Z,53.88
2019-02-18T19:54:21.271Z,54.65
2019-02-18T19:56:52.147Z,54.44
2019-02-18T19:59:23.204Z,54.56
2019-02-18T20:01:55.020Z,54.40
2019-02-18T20:04:25.253Z,54.52
2019-02-18T20:06:55.909Z,54.77
2019-02-18T20:09:27.672Z,55.25
2019-02-18T20:11:56.250Z,55.40
2019-02-18T20:14:46.560Z,55.62
2019-02-18T20:17:23.016Z,55.77
2019-02-18T20:20:16.418Z,56.30
2019-02-18T20:22:50.285Z,57.06
2019-02-18T20:25:22.356Z,56.81
2019-02-18T20:27:53.057Z,56.54
2019-02-18T20:30:26.651Z,56.61
2019-02-18T20:33:05.094Z,55.67
2019-02-18T20:35:39.280Z,55.67
2019-02-18T20:38:17.717Z,55.82
2019-02-18T20:40:57.371Z,55.63
2019-02-18T20:43:29.846Z,55.69
2019-02-18T20:46:02.847Z,55.97
2019-02-18T20:48:39.237Z,56.54
2019-02-18T20:51:11.860Z,57.24
2019-02-18T20:53:42.499Z,57.17
2019-02-18T20:56:16.149Z,57.46
2019-02-18T20:58:48.801Z,57.69
2019-02-18T21:01:21.039Z,57.59
2019-02-18T21:03:50.558Z,57.85
2019-02-18T21:06:22.903Z,58.28
2019-02-18T21:08:55.643Z,59.10
2019-02-18T21:11:27.667Z,59.10
2019-02-18T21:14:06.287Z,58.74
2019-02-18T21:16:42.358Z,58.92
2019-02-18T21:19:13.130Z,59.03
2019-02-18T21:21:43.760Z,59.12
2019-02-18T21:24:15.129Z,59.18
2019-02-18T21:26:47.330Z,59.48
2019-02-18T21:29:17.741Z,60.01
2019-02-18T21:31:47.766Z,60.17
2019-02-18T21:34:19.909Z,60.40
2019-02-18T21:36:54.526Z,60.37
2019-02-18T21:39:27.042Z,60.51
2019-02-18T21:42:00.974Z,60.59
2019-02-18T21:44:40.473Z,60.22
2019-02-18T21:47:12.402Z,60.22
2019-02-18T21:49:42.973Z,60.19
2019-02-18T21:52:20.172Z,60.57
2019-02-18T21:54:55.124Z,60.65
2019-02-18T21:57:30.916Z,60.56
2019-02-18T22:00:05.500Z,60.25
2019-02-18T22:02:37.901Z,60.05
2019-02-18T22:05:10.328Z,59.92
2019-02-18T22:07:50.608Z,59.83
2019-02-18T22:10:23.081Z,59.44
2019-02-18T22:12:57.981Z,59.49
2019-02-18T22:15:31.263Z,59.61
2019-02-18T22:18:04.865Z,60.22
2019-02-18T22:20:44.569Z,61.02
2019-02-18T22:23:25.299Z,61.20
2019-02-18T22:25:54.386Z,61.95
2019-02-18T22:28:23.977Z,62.51
2019-02-18T22:31:05.228Z,64.18
2019-02-18T22:33:36.671Z,65.20
2019-02-18T22:36:08.720Z,66.21
2019-02-18T22:38:44.079Z,67.06
2019-02-18T22:41:17.176Z,67.96
2019-02-18T22:43:49.216Z,69.13
2019-02-18T22:46:18.837Z,70.07
2019-02-18T22:48:51.451Z,70.51
2019-02-18T22:51:25.440Z,70.55
2019-02-18T22:53:54.539Z,70.73
2019-02-18T22:56:26.877Z,71.19
2019-02-18T22:58:58.500Z,71.44
2019-02-18T23:01:31.200Z,71.31
2019-02-18T23:04:06.451Z,71.37
2019-02-18T23:06:47.139Z,71.72
2019-02-18T23:09:20.124Z,72.90
2019-02-18T23:11:55.671Z,72.69
2019-02-18T23:14:24.602Z,72.83
2019-02-18T23:17:04.005Z,73.14
2019-02-18T23:19:36.861Z,73.56
2019-02-18T23:22:08.101Z,73.89
2019-02-18T23:24:42.544Z,73.87
2019-02-18T23:27:16.025Z,74.04
2019-02-18T23:29:48.633Z,73.68
2019-02-18T23:32:18.844Z,74.31
2019-02-18T23:34:52.425Z,74.73
2019-02-18T23:37:23.320Z,74.43
2019-02-18T23:39:53.476Z,74.85
2019-02-18T23:42:31.605Z,74.42
2019-02-18T23:45:05.218Z,74.81
2019-02-18T23:47:38.282Z,75.92
2019-02-18T23:50:12.202Z,76.04
2019-02-18T23:52:44.215Z,76.23
2019-02-18T23:55:13.194Z,76.80
2019-02-18T23:57:46.708Z,76.24
